Billings, MT (59101)

9:53 AM MDT on September 19, 2014 (GMT -0600)
Downtown Billings | Change Station
CLOSE
Current Station
Personal Weather Station
Location: Billings, MT
Elevation: 3127 ft
Nearby Weather Stations

Elev 3127 ft 45.78 °N, 108.50 °W | Updated 31 minutes ago

Partly Cloudy
Partly Cloudy
62.2 °F
Feels Like 62.2 °F
N
5.6
Wind Variable Wind from WSW
Gusts 8.5 mph

Today
High -- | Low -- °F
--% Chance of Precip.
Yesterday
High -- | Low -- °F
Precip. -- in
6:57 AM 7:17 PM
Waning Crescent, 18% visible
Pressure 29.84 in
Visibility 10.0 miles
Clouds Few 8000 ft
Scattered Clouds 12000 ft
Dew Point 55 °F
Humidity 76%
Rainfall -999.00 in
Snow Depth 1 in , 0 in , 0 in
UV 1 out of 12
Pollen 5.30 out of 12
Air Quality Not available.
Flu Activity Not available.
METAR KBIL 191453Z 23010KT 10SM FEW080 SCT120 16/11 A2989 RMK AO2 SLP103 T01560106 53011

More Conditions Fewer Conditions

Pressure 29.84 in
Visibility 10.0 miles
Clouds Few 8000 ft
Scattered Clouds 12000 ft
Dew Point 55 °F
Humidity 76%
Rainfall -999.00 in
Snow Depth 1 in , 0 in , 0 in
UV 1 out of 12
Pollen 5.30 out of 12
Air Quality Not available.
Flu Activity Not available.
METAR KBIL 191453Z 23010KT 10SM FEW080 SCT120 16/11 A2989 RMK AO2 SLP103 T01560106 53011

More Conditions Fewer Conditions

10-Day Weather Forecast

Almanac

Astronomy

Sep. 19, 2014 Rise Set
Actual Time 6:57 AM MDT 7:17 PM MDT
Civil Twilight 6:27 AM MDT 7:46 PM MDT
Nautical Twilight 5:52 AM MDT 8:21 PM MDT
Astronomical Twilight 5:16 AM MDT 8:58 PM MDT
Moon 2:34 AM MDT 4:56 PM MDT
Length of Visible Light 13h 19m
Length of Day
12h 19m
Tomorrow will be 3m 11s shorter.
Waning Crescent, 18% of the Moon is Illuminated
Today
Waning Crescent
Sep 24
New
Oct 1
First Quarter
Oct 8
Full
Oct 15
Last Quarter

Today's Extremes

State Highs State Lows

Community

WunderPhotos

Upload Photos

1,754,637 photos uploaded!

WunderBlogs® & News

By Dr. Jeff Masters
Director of Meteorology, Weather Underground
By Kari Strenfel
Meteorologist, Weather Underground
By Christopher C. Burt
Weather Historian, Weather Underground
September 19, 2014
September 19, 2014
September 19, 2014

Nearby

Snow Depth

Station Depth Elevation
Brackett Creek 1 in 7320 ft
Daisy Peak 0 in 7600 ft
Mount Lockhart 0 in 6400 ft
Many Glacier 0 in 4900 ft
Stuart Mountain 0 in 7400 ft

Earthquake Activity

City Distance Mag. Time & Date
No recent earthquake activity has been reported nearby.
Minimum magnitude displayed is 2.5.

Coastal Water Temperatures

Place Temperature
No Stations Reporting

Nearby Weather Stations